sensor_id;sensor_type;location;lat;lon;timestamp;pressure;altitude;pressure_sealevel;temperature;humidity
8653;BME280;4364;52.426;9.424;2024-01-16T00:00:20;99855.06;;;0.07;100.00
8653;BME280;4364;52.426;9.424;2024-01-16T00:02:46;99850.53;;;0.07;100.00
8653;BME280;4364;52.426;9.424;2024-01-16T00:05:13;99864.13;;;0.06;100.00
8653;BME280;4364;52.426;9.424;2024-01-16T00:07:40;99865.28;;;0.10;100.00
8653;BME280;4364;52.426;9.424;2024-01-16T00:10:08;99863.06;;;0.07;100.00
8653;BME280;4364;52.426;9.424;2024-01-16T00:12:34;99864.13;;;0.06;100.00
8653;BME280;4364;52.426;9.424;2024-01-16T00:15:01;99865.41;;;0.03;100.00
8653;BME280;4364;52.426;9.424;2024-01-16T00:17:27;99868.28;;;0.02;100.00
8653;BME280;4364;52.426;9.424;2024-01-16T00:19:54;99882.38;;;-0.03;100.00
8653;BME280;4364;52.426;9.424;2024-01-16T00:22:20;99877.38;;;0.01;100.00
8653;BME280;4364;52.426;9.424;2024-01-16T00:24:47;99882.97;;;0.11;100.00
8653;BME280;4364;52.426;9.424;2024-01-16T00:27:14;99882.19;;;0.10;100.00
8653;BME280;4364;52.426;9.424;2024-01-16T00:29:40;99881.94;;;0.12;100.00
8653;BME280;4364;52.426;9.424;2024-01-16T00:32:07;99886.56;;;0.05;100.00
8653;BME280;4364;52.426;9.424;2024-01-16T00:34:34;99888.41;;;0.04;100.00
8653;BME280;4364;52.426;9.424;2024-01-16T00:37:01;99898.00;;;0.12;100.00
8653;BME280;4364;52.426;9.424;2024-01-16T00:39:27;99889.50;;;0.15;100.00
8653;BME280;4364;52.426;9.424;2024-01-16T00:41:54;99905.41;;;0.10;100.00
8653;BME280;4364;52.426;9.424;2024-01-16T00:44:20;99912.84;;;0.08;100.00
8653;BME280;4364;52.426;9.424;2024-01-16T00:46:46;99915.88;;;0.11;100.00
8653;BME280;4364;52.426;9.424;2024-01-16T00:49:13;99921.88;;;0.07;100.00
8653;BME280;4364;52.426;9.424;2024-01-16T00:51:40;99922.50;;;0.09;100.00
8653;BME280;4364;52.426;9.424;2024-01-16T00:54:07;99924.34;;;0.08;100.00
8653;BME280;4364;52.426;9.424;2024-01-16T00:56:35;99928.53;;;0.04;100.00
8653;BME280;4364;52.426;9.424;2024-01-16T00:59:02;99936.19;;;0.01;100.00
8653;BME280;4364;52.426;9.424;2024-01-16T01:01:29;99930.38;;;0.04;100.00
8653;BME280;4364;52.426;9.424;2024-01-16T01:03:55;99937.94;;;0.07;100.00
8653;BME280;4364;52.426;9.424;2024-01-16T01:06:22;99943.28;;;0.07;100.00
8653;BME280;4364;52.426;9.424;2024-01-16T01:08:48;99947.22;;;0.04;100.00
8653;BME280;4364;52.426;9.424;2024-01-16T01:11:15;99947.59;;;0.08;100.00
8653;BME280;4364;52.426;9.424;2024-01-16T01:13:42;99948.19;;;0.10;100.00
8653;BME280;4364;52.426;9.424;2024-01-16T01:16:08;99959.50;;;0.12;100.00
8653;BME280;4364;52.426;9.424;2024-01-16T01:18:35;99956.41;;;0.08;100.00
8653;BME280;4364;52.426;9.424;2024-01-16T01:21:01;99954.94;;;0.12;100.00
8653;BME280;4364;52.426;9.424;2024-01-16T01:23:28;99957.13;;;0.04;100.00
8653;BME280;4364;52.426;9.424;2024-01-16T01:25:54;99965.59;;;0.01;100.00
8653;BME280;4364;52.426;9.424;2024-01-16T01:28:21;99965.00;;;-0.02;100.00
8653;BME280;4364;52.426;9.424;2024-01-16T01:30:47;99975.69;;;-0.02;100.00
8653;BME280;4364;52.426;9.424;2024-01-16T01:33:14;99967.91;;;-0.03;100.00
8653;BME280;4364;52.426;9.424;2024-01-16T01:35:41;99970.72;;;0.02;100.00
8653;BME280;4364;52.426;9.424;2024-01-16T01:38:07;99979.03;;;-0.06;100.00
8653;BME280;4364;52.426;9.424;2024-01-16T01:40:34;99981.19;;;0.04;100.00
8653;BME280;4364;52.426;9.424;2024-01-16T01:43:17;99967.34;;;0.07;100.00
8653;BME280;4364;52.426;9.424;2024-01-16T01:45:44;99970.84;;;0.07;100.00
8653;BME280;4364;52.426;9.424;2024-01-16T01:48:10;99979.84;;;-0.06;100.00
8653;BME280;4364;52.426;9.424;2024-01-16T01:50:37;99982.06;;;-0.03;100.00
8653;BME280;4364;52.426;9.424;2024-01-16T01:53:05;99978.72;;;0.02;100.00
8653;BME280;4364;52.426;9.424;2024-01-16T01:55:31;99983.09;;;-0.04;100.00
8653;BME280;4364;52.426;9.424;2024-01-16T01:57:58;99987.72;;;-0.11;100.00
8653;BME280;4364;52.426;9.424;2024-01-16T02:00:24;99991.66;;;-0.13;100.00
8653;BME280;4364;52.426;9.424;2024-01-16T02:02:51;99998.25;;;-0.16;100.00
8653;BME280;4364;52.426;9.424;2024-01-16T02:05:19;99998.84;;;-0.14;100.00
8653;BME280;4364;52.426;9.424;2024-01-16T02:07:46;100004.78;;;-0.12;100.00
8653;BME280;4364;52.426;9.424;2024-01-16T02:10:12;99998.41;;;-0.11;100.00
8653;BME280;4364;52.426;9.424;2024-01-16T02:12:39;99987.13;;;-0.13;100.00
8653;BME280;4364;52.426;9.424;2024-01-16T02:15:06;100007.22;;;-0.10;100.00
8653;BME280;4364;52.426;9.424;2024-01-16T02:17:33;100014.00;;;-0.26;100.00
8653;BME280;4364;52.426;9.424;2024-01-16T02:19:59;100015.47;;;-0.30;100.00
8653;BME280;4364;52.426;9.424;2024-01-16T02:22:28;100016.09;;;-0.28;100.00
8653;BME280;4364;52.426;9.424;2024-01-16T02:24:55;100018.34;;;-0.32;100.00
8653;BME280;4364;52.426;9.424;2024-01-16T02:27:22;100029.59;;;-0.42;100.00
8653;BME280;4364;52.426;9.424;2024-01-16T02:29:48;100018.13;;;-0.30;100.00
8653;BME280;4364;52.426;9.424;2024-01-16T02:32:15;100019.25;;;-0.38;100.00
8653;BME280;4364;52.426;9.424;2024-01-16T02:34:42;100031.56;;;-0.37;100.00
8653;BME280;4364;52.426;9.424;2024-01-16T02:37:09;100035.13;;;-0.43;100.00
8653;BME280;4364;52.426;9.424;2024-01-16T02:39:36;100034.09;;;-0.42;100.00
8653;BME280;4364;52.426;9.424;2024-01-16T02:42:03;100029.88;;;-0.50;100.00
8653;BME280;4364;52.426;9.424;2024-01-16T02:44:30;100030.31;;;-0.34;100.00
8653;BME280;4364;52.426;9.424;2024-01-16T02:46:57;100029.59;;;-0.42;100.00
8653;BME280;4364;52.426;9.424;2024-01-16T02:49:23;100029.19;;;-0.45;100.00
8653;BME280;4364;52.426;9.424;2024-01-16T02:51:52;100035.34;;;-0.45;100.00
8653;BME280;4364;52.426;9.424;2024-01-16T02:54:19;100033.06;;;-0.41;100.00
8653;BME280;4364;52.426;9.424;2024-01-16T02:56:46;100035.56;;;-0.46;100.00
8653;BME280;4364;52.426;9.424;2024-01-16T02:59:12;100047.72;;;-0.50;100.00
8653;BME280;4364;52.426;9.424;2024-01-16T03:01:39;100043.94;;;-0.61;100.00
8653;BME280;4364;52.426;9.424;2024-01-16T03:04:05;100050.66;;;-0.59;100.00
8653;BME280;4364;52.426;9.424;2024-01-16T03:06:32;100057.59;;;-0.51;100.00
8653;BME280;4364;52.426;9.424;2024-01-16T03:08:59;100061.75;;;-0.55;100.00
8653;BME280;4364;52.426;9.424;2024-01-16T03:11:26;100064.66;;;-0.57;100.00
8653;BME280;4364;52.426;9.424;2024-01-16T03:13:55;100059.25;;;-0.50;100.00
8653;BME280;4364;52.426;9.424;2024-01-16T03:16:22;100050.44;;;-0.57;100.00
8653;BME280;4364;52.426;9.424;2024-01-16T03:18:48;100056.53;;;-0.68;100.00
8653;BME280;4364;52.426;9.424;2024-01-16T03:21:15;100059.97;;;-0.61;100.00
8653;BME280;4364;52.426;9.424;2024-01-16T03:23:42;100060.97;;;-0.62;100.00
8653;BME280;4364;52.426;9.424;2024-01-16T03:26:14;100064.28;;;-0.60;100.00
8653;BME280;4364;52.426;9.424;2024-01-16T03:28:41;100066.09;;;-0.61;100.00
8653;BME280;4364;52.426;9.424;2024-01-16T03:31:08;100055.63;;;-0.62;100.00
8653;BME280;4364;52.426;9.424;2024-01-16T03:33:35;100062.03;;;-0.63;100.00
8653;BME280;4364;52.426;9.424;2024-01-16T03:36:02;100063.91;;;-0.70;100.00
8653;BME280;4364;52.426;9.424;2024-01-16T03:38:29;100068.25;;;-0.69;100.00
8653;BME280;4364;52.426;9.424;2024-01-16T03:40:55;100069.66;;;-0.67;100.00
8653;BME280;4364;52.426;9.424;2024-01-16T03:43:22;100071.34;;;-0.72;100.00
8653;BME280;4364;52.426;9.424;2024-01-16T03:45:48;100073.41;;;-0.75;100.00
8653;BME280;4364;52.426;9.424;2024-01-16T03:48:14;100071.94;;;-0.70;100.00
8653;BME280;4364;52.426;9.424;2024-01-16T03:50:41;100079.78;;;-0.76;100.00
8653;BME280;4364;52.426;9.424;2024-01-16T03:53:10;100089.16;;;-0.66;100.00
8653;BME280;4364;52.426;9.424;2024-01-16T03:55:37;100090.88;;;-0.79;100.00
8653;BME280;4364;52.426;9.424;2024-01-16T03:58:03;100094.28;;;-0.65;100.00
8653;BME280;4364;52.426;9.424;2024-01-16T04:00:30;100089.81;;;-0.71;100.00
8653;BME280;4364;52.426;9.424;2024-01-16T04:02:56;100093.50;;;-0.72;100.00
8653;BME280;4364;52.426;9.424;2024-01-16T04:05:23;100090.56;;;-0.64;100.00
8653;BME280;4364;52.426;9.424;2024-01-16T04:07:49;100088.63;;;-0.75;100.00
8653;BME280;4364;52.426;9.424;2024-01-16T04:10:16;100098.47;;;-0.76;100.00
8653;BME280;4364;52.426;9.424;2024-01-16T04:12:42;100089.97;;;-0.66;100.00
8653;BME280;4364;52.426;9.424;2024-01-16T04:15:09;100089.00;;;-0.71;100.00
8653;BME280;4364;52.426;9.424;2024-01-16T04:17:35;100094.72;;;-0.68;100.00
8653;BME280;4364;52.426;9.424;2024-01-16T04:20:02;100101.47;;;-0.65;100.00
8653;BME280;4364;52.426;9.424;2024-01-16T04:22:29;100097.50;;;-0.56;100.00
8653;BME280;4364;52.426;9.424;2024-01-16T04:24:55;100091.41;;;-0.63;100.00
8653;BME280;4364;52.426;9.424;2024-01-16T04:27:22;100104.38;;;-0.67;100.00
8653;BME280;4364;52.426;9.424;2024-01-16T04:29:48;100093.25;;;-0.64;100.00
8653;BME280;4364;52.426;9.424;2024-01-16T04:32:15;100094.72;;;-0.68;100.00
8653;BME280;4364;52.426;9.424;2024-01-16T04:34:41;100101.94;;;-0.68;100.00
8653;BME280;4364;52.426;9.424;2024-01-16T04:37:08;100096.44;;;-0.73;100.00
8653;BME280;4364;52.426;9.424;2024-01-16T04:39:34;100102.94;;;-0.69;100.00
8653;BME280;4364;52.426;9.424;2024-01-16T04:42:01;100093.91;;;-0.68;100.00
8653;BME280;4364;52.426;9.424;2024-01-16T04:44:27;100093.06;;;-0.69;100.00
8653;BME280;4364;52.426;9.424;2024-01-16T04:46:54;100086.56;;;-0.73;100.00
8653;BME280;4364;52.426;9.424;2024-01-16T04:49:20;100092.16;;;-0.81;100.00
8653;BME280;4364;52.426;9.424;2024-01-16T04:51:47;100092.53;;;-0.78;100.00
8653;BME280;4364;52.426;9.424;2024-01-16T04:54:13;100091.94;;;-0.80;100.00
8653;BME280;4364;52.426;9.424;2024-01-16T04:56:40;100096.84;;;-0.77;100.00
8653;BME280;4364;52.426;9.424;2024-01-16T04:59:06;100104.88;;;-0.77;100.00
8653;BME280;4364;52.426;9.424;2024-01-16T05:01:33;100103.25;;;-0.84;100.00
8653;BME280;4364;52.426;9.424;2024-01-16T05:03:59;100092.53;;;-0.78;100.00
8653;BME280;4364;52.426;9.424;2024-01-16T05:06:26;100103.47;;;-0.86;100.00
8653;BME280;4364;52.426;9.424;2024-01-16T05:08:53;100105.16;;;-0.91;100.00
8653;BME280;4364;52.426;9.424;2024-01-16T05:11:19;100105.16;;;-0.91;100.00
8653;BME280;4364;52.426;9.424;2024-01-16T05:13:46;100101.84;;;-0.87;100.00
8653;BME280;4364;52.426;9.424;2024-01-16T05:16:13;100101.19;;;-0.82;100.00
8653;BME280;4364;52.426;9.424;2024-01-16T05:18:42;100099.63;;;-0.90;100.00
8653;BME280;4364;52.426;9.424;2024-01-16T05:21:09;100104.31;;;-0.92;100.00
8653;BME280;4364;52.426;9.424;2024-01-16T05:23:36;100101.84;;;-0.87;100.00
8653;BME280;4364;52.426;9.424;2024-01-16T05:26:03;100094.44;;;-0.85;100.00
8653;BME280;4364;52.426;9.424;2024-01-16T05:28:30;100096.91;;;-0.83;100.00
8653;BME280;4364;52.426;9.424;2024-01-16T05:30:56;100092.59;;;-0.84;100.00
8653;BME280;4364;52.426;9.424;2024-01-16T05:33:23;100094.03;;;-0.82;100.00
8653;BME280;4364;52.426;9.424;2024-01-16T05:35:49;100094.50;;;-0.91;100.00
8653;BME280;4364;52.426;9.424;2024-01-16T05:38:17;100084.34;;;-0.83;100.00
8653;BME280;4364;52.426;9.424;2024-01-16T05:40:44;100084.63;;;-0.91;100.00
8653;BME280;4364;52.426;9.424;2024-01-16T05:43:11;100091.59;;;-0.90;100.00
8653;BME280;4364;52.426;9.424;2024-01-16T05:45:37;100082.16;;;-0.93;100.00
8653;BME280;4364;52.426;9.424;2024-01-16T05:48:04;100084.78;;;-0.86;100.00
8653;BME280;4364;52.426;9.424;2024-01-16T05:50:35;100089.53;;;-0.88;100.00
8653;BME280;4364;52.426;9.424;2024-01-16T05:53:01;100082.13;;;-0.86;100.00
8653;BME280;4364;52.426;9.424;2024-01-16T05:55:28;100101.81;;;-0.80;100.00
8653;BME280;4364;52.426;9.424;2024-01-16T05:57:58;100090.13;;;-0.86;100.00
8653;BME280;4364;52.426;9.424;2024-01-16T06:00:27;100095.84;;;-0.82;100.00
8653;BME280;4364;52.426;9.424;2024-01-16T06:02:54;100093.38;;;-0.84;100.00
8653;BME280;4364;52.426;9.424;2024-01-16T06:05:21;100092.88;;;-0.99;100.00
8653;BME280;4364;52.426;9.424;2024-01-16T06:07:47;100099.28;;;-1.00;100.00
8653;BME280;4364;52.426;9.424;2024-01-16T06:10:14;100092.50;;;-1.03;100.00
8653;BME280;4364;52.426;9.424;2024-01-16T06:12:42;100095.72;;;-0.94;100.00
8653;BME280;4364;52.426;9.424;2024-01-16T06:15:09;100093.84;;;-0.87;100.00
8653;BME280;4364;52.426;9.424;2024-01-16T06:17:37;100093.59;;;-0.85;100.00
8653;BME280;4364;52.426;9.424;2024-01-16T06:20:05;100090.50;;;-0.82;100.00
8653;BME280;4364;52.426;9.424;2024-01-16T06:22:33;100096.06;;;-0.84;100.00
8653;BME280;4364;52.426;9.424;2024-01-16T06:24:59;100103.91;;;-0.89;100.00
8653;BME280;4364;52.426;9.424;2024-01-16T06:27:26;100096.91;;;-0.83;100.00
8653;BME280;4364;52.426;9.424;2024-01-16T06:29:52;100088.72;;;-0.88;100.00
8653;BME280;4364;52.426;9.424;2024-01-16T06:32:19;100095.16;;;-0.71;100.00
8653;BME280;4364;52.426;9.424;2024-01-16T06:34:45;100093.81;;;-0.80;100.00
8653;BME280;4364;52.426;9.424;2024-01-16T06:37:12;100100.25;;;-0.95;100.00
8653;BME280;4364;52.426;9.424;2024-01-16T06:39:38;100099.66;;;-0.97;100.00
8653;BME280;4364;52.426;9.424;2024-01-16T06:42:05;100099.81;;;-0.91;100.00
8653;BME280;4364;52.426;9.424;2024-01-16T06:44:36;100097.97;;;-0.91;100.00
8653;BME280;4364;52.426;9.424;2024-01-16T06:47:03;100104.53;;;-0.87;100.00
8653;BME280;4364;52.426;9.424;2024-01-16T06:49:30;100107.47;;;-0.95;100.00
8653;BME280;4364;52.426;9.424;2024-01-16T06:51:57;100108.00;;;-0.86;100.00
8653;BME280;4364;52.426;9.424;2024-01-16T06:54:24;100110.97;;;-1.01;100.00
8653;BME280;4364;52.426;9.424;2024-01-16T06:56:50;100112.78;;;-0.95;100.00
8653;BME280;4364;52.426;9.424;2024-01-16T06:59:17;100113.13;;;-0.85;100.00
8653;BME280;4364;52.426;9.424;2024-01-16T07:01:46;100114.84;;;-0.97;100.00
8653;BME280;4364;52.426;9.424;2024-01-16T07:04:12;100114.63;;;-0.96;100.00
8653;BME280;4364;52.426;9.424;2024-01-16T07:06:41;100116.06;;;-0.93;100.00
8653;BME280;4364;52.426;9.424;2024-01-16T07:09:07;100118.50;;;-0.91;100.00
8653;BME280;4364;52.426;9.424;2024-01-16T07:11:37;100118.56;;;-0.98;100.00
8653;BME280;4364;52.426;9.424;2024-01-16T07:14:07;100124.06;;;-0.93;100.00
8653;BME280;4364;52.426;9.424;2024-01-16T07:16:34;100118.09;;;-0.88;100.00
8653;BME280;4364;52.426;9.424;2024-01-16T07:19:01;100122.84;;;-0.97;100.00
8653;BME280;4364;52.426;9.424;2024-01-16T07:21:28;100123.47;;;-0.95;100.00
8653;BME280;4364;52.426;9.424;2024-01-16T07:23:55;100124.53;;;-1.03;100.00
8653;BME280;4364;52.426;9.424;2024-01-16T07:26:22;100121.22;;;-0.98;100.00
8653;BME280;4364;52.426;9.424;2024-01-16T07:28:49;100121.91;;;-1.09;100.00
8653;BME280;4364;52.426;9.424;2024-01-16T07:31:16;100131.91;;;-0.98;100.00
8653;BME280;4364;52.426;9.424;2024-01-16T07:33:43;100124.53;;;-1.03;100.00
8653;BME280;4364;52.426;9.424;2024-01-16T07:36:12;100129.22;;;-0.98;100.00
8653;BME280;4364;52.426;9.424;2024-01-16T07:38:38;100134.53;;;-0.91;100.00
8653;BME280;4364;52.426;9.424;2024-01-16T07:41:05;100135.97;;;-0.96;100.00
8653;BME280;4364;52.426;9.424;2024-01-16T07:43:32;100141.28;;;-0.89;100.00
8653;BME280;4364;52.426;9.424;2024-01-16T07:45:59;100134.56;;;-0.98;100.00
8653;BME280;4364;52.426;9.424;2024-01-16T07:48:26;100130.25;;;-0.99;100.00
8653;BME280;4364;52.426;9.424;2024-01-16T07:50:52;100134.75;;;-0.93;100.00
8653;BME280;4364;52.426;9.424;2024-01-16T07:53:19;100123.22;;;-0.87;100.00
8653;BME280;4364;52.426;9.424;2024-01-16T07:55:45;100134.19;;;-1.02;100.00
8653;BME280;4364;52.426;9.424;2024-01-16T07:58:13;100131.66;;;-0.90;100.00
8653;BME280;4364;52.426;9.424;2024-01-16T08:00:40;100134.50;;;-0.85;100.00
8653;BME280;4364;52.426;9.424;2024-01-16T08:03:08;100141.50;;;-0.90;100.00
8653;BME280;4364;52.426;9.424;2024-01-16T08:05:34;100150.72;;;-0.86;100.00
8653;BME280;4364;52.426;9.424;2024-01-16T08:08:04;100150.75;;;-0.93;100.00
8653;BME280;4364;52.426;9.424;2024-01-16T08:10:31;100147.44;;;-0.88;100.00
8653;BME280;4364;52.426;9.424;2024-01-16T08:12:57;100142.16;;;-0.95;100.00
8653;BME280;4364;52.426;9.424;2024-01-16T08:15:24;100141.66;;;-0.85;100.00
8653;BME280;4364;52.426;9.424;2024-01-16T08:17:50;100151.09;;;-0.83;100.00
8653;BME280;4364;52.426;9.424;2024-01-16T08:20:17;100141.09;;;-0.94;100.00
8653;BME280;4364;52.426;9.424;2024-01-16T08:22:44;100147.03;;;-0.92;100.00
8653;BME280;4364;52.426;9.424;2024-01-16T08:25:11;100148.47;;;-0.89;100.00
8653;BME280;4364;52.426;9.424;2024-01-16T08:27:37;100151.88;;;-0.76;100.00
8653;BME280;4364;52.426;9.424;2024-01-16T08:30:05;100157.00;;;-0.74;100.00
8653;BME280;4364;52.426;9.424;2024-01-16T08:32:32;100149.47;;;-0.84;100.00
8653;BME280;4364;52.426;9.424;2024-01-16T08:34:59;100152.66;;;-0.68;100.00
8653;BME280;4364;52.426;9.424;2024-01-16T08:37:26;100152.66;;;-0.68;100.00
8653;BME280;4364;52.426;9.424;2024-01-16T08:39:52;100151.59;;;-0.67;100.00
8653;BME280;4364;52.426;9.424;2024-01-16T08:42:19;100147.53;;;-0.70;100.00
8653;BME280;4364;52.426;9.424;2024-01-16T08:44:45;100152.88;;;-0.70;100.00
8653;BME280;4364;52.426;9.424;2024-01-16T08:47:12;100147.16;;;-0.73;100.00
8653;BME280;4364;52.426;9.424;2024-01-16T08:49:38;100150.47;;;-0.78;100.00
8653;BME280;4364;52.426;9.424;2024-01-16T08:52:06;100155.53;;;-0.70;100.00
8653;BME280;4364;52.426;9.424;2024-01-16T08:54:33;100155.72;;;-0.65;100.00
8653;BME280;4364;52.426;9.424;2024-01-16T08:57:00;100153.91;;;-0.71;100.00
8653;BME280;4364;52.426;9.424;2024-01-16T08:59:27;100152.66;;;-0.68;100.00
8653;BME280;4364;52.426;9.424;2024-01-16T09:01:54;100153.25;;;-0.66;100.00
8653;BME280;4364;52.426;9.424;2024-01-16T09:04:21;100149.78;;;-0.67;100.00
8653;BME280;4364;52.426;9.424;2024-01-16T09:06:47;100142.41;;;-0.71;100.00
8653;BME280;4364;52.426;9.424;2024-01-16T09:09:14;100147.91;;;-0.66;100.00
8653;BME280;4364;52.426;9.424;2024-01-16T09:11:42;100150.22;;;-0.70;100.00
8653;BME280;4364;52.426;9.424;2024-01-16T09:14:09;100144.59;;;-0.62;100.00
8653;BME280;4364;52.426;9.424;2024-01-16T09:16:35;100149.69;;;-0.53;100.00
8653;BME280;4364;52.426;9.424;2024-01-16T09:19:02;100154.63;;;-0.57;100.00
8653;BME280;4364;52.426;9.424;2024-01-16T09:21:28;100157.50;;;-0.59;100.00
8653;BME280;4364;52.426;9.424;2024-01-16T09:23:55;100145.31;;;-0.48;100.00
8653;BME280;4364;52.426;9.424;2024-01-16T09:26:22;100143.25;;;-0.46;100.00
8653;BME280;4364;52.426;9.424;2024-01-16T09:28:48;100154.09;;;-0.41;100.00
8653;BME280;4364;52.426;9.424;2024-01-16T09:31:15;100140.78;;;-0.47;100.00
8653;BME280;4364;52.426;9.424;2024-01-16T09:33:43;100137.72;;;-0.51;100.00
8653;BME280;4364;52.426;9.424;2024-01-16T09:36:10;100141.94;;;-0.36;100.00
8653;BME280;4364;52.426;9.424;2024-01-16T09:38:36;100154.69;;;-0.39;100.00
8653;BME280;4364;52.426;9.424;2024-01-16T09:41:03;100141.72;;;-0.35;100.00
8653;BME280;4364;52.426;9.424;2024-01-16T09:43:31;100140.41;;;-0.26;100.00
8653;BME280;4364;52.426;9.424;2024-01-16T09:46:00;100158.66;;;-0.23;100.00
8653;BME280;4364;52.426;9.424;2024-01-16T09:48:30;100147.97;;;-0.23;100.00
8653;BME280;4364;52.426;9.424;2024-01-16T09:50:57;100150.38;;;-0.14;100.00
8653;BME280;4364;52.426;9.424;2024-01-16T09:53:24;100152.41;;;-0.10;100.00
8653;BME280;4364;52.426;9.424;2024-01-16T09:55:54;100146.16;;;-0.04;100.00
8653;BME280;4364;52.426;9.424;2024-01-16T09:58:21;100149.66;;;-0.03;100.00
8653;BME280;4364;52.426;9.424;2024-01-16T10:00:51;100149.81;;;0.02;100.00
8653;BME280;4364;52.426;9.424;2024-01-16T10:03:20;100153.38;;;0.14;100.00
8653;BME280;4364;52.426;9.424;2024-01-16T10:05:48;100153.03;;;0.11;100.00
8653;BME280;4364;52.426;9.424;2024-01-16T10:08:15;100150.50;;;0.16;100.00
8653;BME280;4364;52.426;9.424;2024-01-16T10:10:42;100142.25;;;0.17;100.00
8653;BME280;4364;52.426;9.424;2024-01-16T10:13:16;100150.13;;;0.31;100.00
8653;BME280;4364;52.426;9.424;2024-01-16T10:15:43;100143.06;;;0.18;100.00
8653;BME280;4364;52.426;9.424;2024-01-16T10:18:24;100158.31;;;0.36;100.00
8653;BME280;4364;52.426;9.424;2024-01-16T10:20:52;100155.13;;;0.27;100.00
8653;BME280;4364;52.426;9.424;2024-01-16T10:23:27;100153.19;;;0.34;100.00
8653;BME280;4364;52.426;9.424;2024-01-16T10:28:34;100157.22;;;0.25;100.00
8653;BME280;4364;52.426;9.424;2024-01-16T10:31:02;100166.84;;;0.26;100.00
8653;BME280;4364;52.426;9.424;2024-01-16T10:33:30;100158.44;;;0.23;100.00
8653;BME280;4364;52.426;9.424;2024-01-16T10:36:13;100155.13;;;0.27;100.00
8653;BME280;4364;52.426;9.424;2024-01-16T10:38:42;100157.44;;;0.42;100.00
8653;BME280;4364;52.426;9.424;2024-01-16T10:41:13;100160.47;;;0.46;100.00
8653;BME280;4364;52.426;9.424;2024-01-16T10:43:41;100150.34;;;0.48;100.00
8653;BME280;4364;52.426;9.424;2024-01-16T10:46:09;100162.34;;;0.45;100.00
8653;BME280;4364;52.426;9.424;2024-01-16T10:48:36;100169.09;;;0.48;100.00
8653;BME280;4364;52.426;9.424;2024-01-16T10:51:03;100171.16;;;0.46;100.00
8653;BME280;4364;52.426;9.424;2024-01-16T10:53:33;100167.63;;;0.52;100.00
8653;BME280;4364;52.426;9.424;2024-01-16T10:56:01;100167.13;;;0.55;100.00
8653;BME280;4364;52.426;9.424;2024-01-16T10:58:29;100165.00;;;0.64;100.00
8653;BME280;4364;52.426;9.424;2024-01-16T11:01:01;100167.91;;;0.62;100.00
8653;BME280;4364;52.426;9.424;2024-01-16T11:03:35;100174.88;;;0.63;100.00
8653;BME280;4364;52.426;9.424;2024-01-16T11:06:08;100173.25;;;0.62;100.00
8653;BME280;4364;52.426;9.424;2024-01-16T11:08:39;100176.97;;;0.61;100.00
8653;BME280;4364;52.426;9.424;2024-01-16T11:11:06;100172.56;;;0.67;100.00
8653;BME280;4364;52.426;9.424;2024-01-16T11:13:35;100177.84;;;0.55;100.00
8653;BME280;4364;52.426;9.424;2024-01-16T11:16:02;100176.44;;;0.71;100.00
8653;BME280;4364;52.426;9.424;2024-01-16T11:18:31;100181.50;;;0.61;100.00
8653;BME280;4364;52.426;9.424;2024-01-16T11:21:10;100175.22;;;0.67;100.00
8653;BME280;4364;52.426;9.424;2024-01-16T11:23:44;100179.63;;;0.61;100.00
8653;BME280;4364;52.426;9.424;2024-01-16T11:26:25;100175.47;;;0.65;100.00
8653;BME280;4364;52.426;9.424;2024-01-16T11:28:56;100178.31;;;0.70;100.00
8653;BME280;4364;52.426;9.424;2024-01-16T11:31:30;100183.88;;;0.69;100.00
8653;BME280;4364;52.426;9.424;2024-01-16T11:33:58;100182.47;;;0.66;100.00
8653;BME280;4364;52.426;9.424;2024-01-16T11:39:19;100182.38;;;0.54;100.00
8653;BME280;4364;52.426;9.424;2024-01-16T11:41:53;100186.09;;;0.53;100.00
8653;BME280;4364;52.426;9.424;2024-01-16T11:44:48;100192.56;;;0.46;100.00
8653;BME280;4364;52.426;9.424;2024-01-16T11:47:21;100197.41;;;0.37;100.00
8653;BME280;4364;52.426;9.424;2024-01-16T11:50:08;100192.44;;;0.41;100.00
8653;BME280;4364;52.426;9.424;2024-01-16T11:52:40;100187.00;;;0.47;100.00
8653;BME280;4364;52.426;9.424;2024-01-16T11:55:30;100188.25;;;0.45;100.00
8653;BME280;4364;52.426;9.424;2024-01-16T12:00:53;100188.53;;;0.36;100.00
8653;BME280;4364;52.426;9.424;2024-01-16T12:03:21;100188.38;;;0.31;100.00
8653;BME280;4364;52.426;9.424;2024-01-16T12:06:01;100189.97;;;0.39;100.00
8653;BME280;4364;52.426;9.424;2024-01-16T12:08:28;100189.75;;;0.41;100.00
8653;BME280;4364;52.426;9.424;2024-01-16T12:10:56;100171.41;;;0.44;100.00
8653;BME280;4364;52.426;9.424;2024-01-16T12:13:23;100175.09;;;0.43;100.00
8653;BME280;4364;52.426;9.424;2024-01-16T12:15:59;100178.59;;;0.44;100.00
8653;BME280;4364;52.426;9.424;2024-01-16T12:18:27;100177.19;;;0.41;100.00
8653;BME280;4364;52.426;9.424;2024-01-16T12:21:10;100175.78;;;0.57;100.00
8653;BME280;4364;52.426;9.424;2024-01-16T12:23:38;100186.09;;;0.53;100.00
8653;BME280;4364;52.426;9.424;2024-01-16T12:26:24;100172.28;;;0.57;100.00
8653;BME280;4364;52.426;9.424;2024-01-16T12:28:53;100174.13;;;0.56;100.00
8653;BME280;4364;52.426;9.424;2024-01-16T12:31:27;100172.78;;;0.47;100.00
8653;BME280;4364;52.426;9.424;2024-01-16T12:34:15;100161.50;;;0.45;100.00
8653;BME280;4364;52.426;9.424;2024-01-16T12:36:42;100163.66;;;0.54;100.00
8653;BME280;4364;52.426;9.424;2024-01-16T12:39:11;100163.06;;;0.52;100.00
8653;BME280;4364;52.426;9.424;2024-01-16T12:41:41;100156.22;;;0.57;100.00
8653;BME280;4364;52.426;9.424;2024-01-16T12:44:10;100157.56;;;0.66;100.00
8653;BME280;4364;52.426;9.424;2024-01-16T12:46:56;100151.47;;;0.59;100.00
8653;BME280;4364;52.426;9.424;2024-01-16T12:49:23;100151.31;;;0.53;100.00
8653;BME280;4364;52.426;9.424;2024-01-16T12:51:50;100152.81;;;0.49;100.00
8653;BME280;4364;52.426;9.424;2024-01-16T12:54:18;100145.88;;;0.42;100.00
8653;BME280;4364;52.426;9.424;2024-01-16T12:56:46;100152.00;;;0.49;100.00
8653;BME280;4364;52.426;9.424;2024-01-16T12:59:14;100144.94;;;0.54;100.00
8653;BME280;4364;52.426;9.424;2024-01-16T13:01:43;100144.47;;;0.58;100.00
8653;BME280;4364;52.426;9.424;2024-01-16T13:04:11;100141.13;;;0.62;100.00
8653;BME280;4364;52.426;9.424;2024-01-16T13:06:38;100137.13;;;0.53;100.00
8653;BME280;4364;52.426;9.424;2024-01-16T13:09:10;100135.44;;;0.59;100.00
8653;BME280;4364;52.426;9.424;2024-01-16T13:11:52;100134.22;;;0.54;100.00
8653;BME280;4364;52.426;9.424;2024-01-16T13:14:19;100139.94;;;0.58;100.00
8653;BME280;4364;52.426;9.424;2024-01-16T13:16:52;100136.47;;;0.58;100.00